createdAt,value
2018-06-18T00:00:41.161Z,0.00
2018-06-18T00:01:41.159Z,0.00
2018-06-18T00:02:41.164Z,0.00
2018-06-18T00:03:41.168Z,0.00
2018-06-18T00:04:41.174Z,0.00
2018-06-18T00:05:41.175Z,0.00
2018-06-18T00:06:41.179Z,0.00
2018-06-18T00:07:41.183Z,0.00
2018-06-18T00:08:41.183Z,0.00
2018-06-18T00:09:41.193Z,0.00
2018-06-18T00:10:41.197Z,0.00
2018-06-18T00:11:41.201Z,0.00
2018-06-18T00:12:41.204Z,0.00
2018-06-18T00:13:41.214Z,0.00
2018-06-18T00:14:41.206Z,0.00
2018-06-18T00:15:41.212Z,0.00
2018-06-18T00:16:41.212Z,0.00
2018-06-18T00:17:41.214Z,0.00
2018-06-18T00:18:41.222Z,0.00
2018-06-18T00:19:41.226Z,0.00
2018-06-18T00:20:41.226Z,0.00
2018-06-18T00:21:41.237Z,0.00
2018-06-18T00:22:41.236Z,0.00
2018-06-18T00:23:41.237Z,0.00
2018-06-18T00:24:41.244Z,0.00
2018-06-18T00:25:41.244Z,0.00
2018-06-18T00:26:41.271Z,0.00
2018-06-18T00:27:41.253Z,0.00
2018-06-18T00:28:41.251Z,0.00
2018-06-18T00:29:41.260Z,0.00
2018-06-18T00:30:41.265Z,0.00
2018-06-18T00:31:41.262Z,0.00
2018-06-18T00:32:41.272Z,0.00
2018-06-18T00:33:41.278Z,0.00
2018-06-18T00:34:41.276Z,0.00
2018-06-18T00:35:41.315Z,0.00
2018-06-18T00:36:41.279Z,0.00
2018-06-18T00:37:41.286Z,0.00
2018-06-18T00:38:41.293Z,0.00
2018-06-18T00:39:41.288Z,0.00
2018-06-18T00:40:41.297Z,0.00
2018-06-18T00:41:41.303Z,0.00
2018-06-18T00:42:41.302Z,0.00
2018-06-18T00:43:41.306Z,0.00
2018-06-18T00:44:41.311Z,0.00
2018-06-18T00:45:41.310Z,0.00
2018-06-18T00:46:41.313Z,0.00
2018-06-18T00:47:41.317Z,0.00
2018-06-18T00:48:41.322Z,0.00
2018-06-18T00:49:41.330Z,0.00
2018-06-18T00:50:41.328Z,0.00
2018-06-18T00:51:41.332Z,0.00
2018-06-18T00:52:41.336Z,0.00
2018-06-18T00:53:41.337Z,0.00
2018-06-18T00:54:41.338Z,0.00
2018-06-18T00:55:41.344Z,0.00
2018-06-18T00:56:41.353Z,0.00
2018-06-18T00:57:41.354Z,0.00
2018-06-18T00:58:41.359Z,0.00
2018-06-18T00:59:41.361Z,0.00
2018-06-18T01:00:41.357Z,0.00
2018-06-18T01:01:41.366Z,0.00
2018-06-18T01:02:41.368Z,0.00
2018-06-18T01:03:41.370Z,0.00
2018-06-18T01:04:41.373Z,0.00
2018-06-18T01:05:41.375Z,0.00
2018-06-18T01:06:41.399Z,0.00
2018-06-18T01:07:41.381Z,0.00
2018-06-18T01:08:41.383Z,0.00
2018-06-18T01:09:41.391Z,0.00
2018-06-18T01:10:41.398Z,0.00
2018-06-18T01:11:41.401Z,0.00
2018-06-18T01:12:41.400Z,0.00
2018-06-18T01:13:41.400Z,0.00
2018-06-18T01:14:41.414Z,0.00
2018-06-18T01:15:41.409Z,0.00
2018-06-18T01:16:41.410Z,0.00
2018-06-18T01:17:41.411Z,0.00
2018-06-18T01:18:41.418Z,0.00
2018-06-18T01:19:41.422Z,0.00
2018-06-18T01:20:41.438Z,0.00
2018-06-18T01:21:41.431Z,0.00
2018-06-18T01:22:41.434Z,0.00
2018-06-18T01:23:41.431Z,0.00
2018-06-18T01:24:41.434Z,0.00
2018-06-18T01:25:41.446Z,0.00
2018-06-18T01:26:41.441Z,0.00
2018-06-18T01:27:41.443Z,0.00
2018-06-18T01:28:41.449Z,0.00
2018-06-18T01:29:41.455Z,0.00
2018-06-18T01:30:41.456Z,0.00
2018-06-18T01:31:41.456Z,0.00
2018-06-18T01:32:41.459Z,0.00
2018-06-18T01:33:41.468Z,0.00
2018-06-18T01:34:41.470Z,0.00
2018-06-18T01:35:41.472Z,0.00
2018-06-18T01:36:41.477Z,0.00
2018-06-18T01:37:41.481Z,0.00
2018-06-18T01:38:41.486Z,0.00
2018-06-18T01:39:41.479Z,0.00
2018-06-18T01:40:41.483Z,0.00
2018-06-18T01:41:41.492Z,0.00
2018-06-18T01:42:41.497Z,0.00
2018-06-18T01:43:41.502Z,0.00
2018-06-18T01:44:41.503Z,0.00
2018-06-18T01:45:41.508Z,0.00
2018-06-18T01:46:41.506Z,0.00
2018-06-18T01:47:41.510Z,0.00
2018-06-18T01:48:41.513Z,0.00
2018-06-18T01:49:41.510Z,0.00
2018-06-18T01:50:41.514Z,0.00
2018-06-18T01:51:41.518Z,0.00
2018-06-18T01:52:41.522Z,0.00
2018-06-18T01:53:41.537Z,0.00
2018-06-18T01:54:41.536Z,0.00
2018-06-18T01:55:41.537Z,0.00
2018-06-18T01:56:41.537Z,0.00
2018-06-18T01:57:41.539Z,0.00
2018-06-18T01:58:41.542Z,0.00
2018-06-18T01:59:41.548Z,0.00
2018-06-18T02:00:41.550Z,0.00
2018-06-18T02:01:41.547Z,0.00
2018-06-18T02:02:41.557Z,0.00
2018-06-18T02:03:41.563Z,0.00
2018-06-18T02:04:41.559Z,0.00
2018-06-18T02:05:41.571Z,0.00
2018-06-18T02:06:41.569Z,0.00
2018-06-18T02:07:41.569Z,0.00
2018-06-18T02:08:41.580Z,0.00
2018-06-18T02:09:41.578Z,0.00
2018-06-18T02:10:41.581Z,0.00
2018-06-18T02:11:41.584Z,0.00
2018-06-18T02:12:41.595Z,0.00
2018-06-18T02:13:41.584Z,0.00
2018-06-18T02:14:41.592Z,0.00
2018-06-18T02:15:41.594Z,0.00
2018-06-18T02:16:41.593Z,0.00
2018-06-18T02:17:41.601Z,0.00
2018-06-18T02:18:41.609Z,0.00
2018-06-18T02:19:41.605Z,0.00
2018-06-18T02:20:41.609Z,0.00
2018-06-18T02:21:41.620Z,0.00
2018-06-18T02:22:41.615Z,0.00
2018-06-18T02:23:41.615Z,0.00
2018-06-18T02:24:41.639Z,0.00
2018-06-18T02:25:41.623Z,0.00
2018-06-18T02:26:41.627Z,0.00
2018-06-18T02:27:41.627Z,0.00
2018-06-18T02:28:41.634Z,0.00
2018-06-18T02:29:41.635Z,0.00
2018-06-18T02:30:41.644Z,0.00
2018-06-18T02:31:41.643Z,0.00
2018-06-18T02:32:41.647Z,0.00
2018-06-18T02:33:41.648Z,0.00
2018-06-18T02:34:41.658Z,0.00
2018-06-18T02:35:41.662Z,0.00
2018-06-18T02:36:41.663Z,0.00
2018-06-18T02:37:41.668Z,0.00
2018-06-18T02:38:41.677Z,0.00
2018-06-18T02:39:41.683Z,0.00
2018-06-18T02:40:41.671Z,0.00
2018-06-18T02:41:41.673Z,0.00
2018-06-18T02:42:41.675Z,0.00
2018-06-18T02:43:41.691Z,0.00
2018-06-18T02:44:41.684Z,0.00
2018-06-18T02:45:41.695Z,0.00
2018-06-18T02:46:41.700Z,0.00
2018-06-18T02:47:41.691Z,0.00
2018-06-18T02:48:41.698Z,0.00
2018-06-18T02:49:41.696Z,0.00
2018-06-18T02:50:41.704Z,0.00
2018-06-18T02:51:41.717Z,4.00
2018-06-18T02:52:41.707Z,4.00
2018-06-18T02:53:41.706Z,0.00
2018-06-18T02:54:41.709Z,4.00
2018-06-18T02:55:41.715Z,4.00
2018-06-18T02:56:41.722Z,4.00
2018-06-18T02:57:41.717Z,8.00
2018-06-18T02:58:41.722Z,4.00
2018-06-18T02:59:41.726Z,4.00
2018-06-18T03:00:41.729Z,8.00
2018-06-18T03:20:01.789Z,68.00
2018-06-18T03:21:01.768Z,72.00
2018-06-18T03:22:01.763Z,80.00
2018-06-18T03:23:01.781Z,80.00
2018-06-18T03:24:01.761Z,88.00
2018-06-18T03:25:01.762Z,92.00
2018-06-18T03:26:01.762Z,96.00
2018-06-18T03:27:01.763Z,104.00
2018-06-18T03:28:01.765Z,108.00
2018-06-18T03:29:01.770Z,120.00
2018-06-18T03:30:01.765Z,128.00
2018-06-18T03:31:01.762Z,136.00
2018-06-18T03:32:01.773Z,148.00
2018-06-18T03:33:01.766Z,152.00
2018-06-18T03:34:01.767Z,160.00
2018-06-18T03:35:01.767Z,168.00
2018-06-18T03:36:01.822Z,176.00
2018-06-18T03:37:01.770Z,180.00
2018-06-18T03:38:01.774Z,184.00
2018-06-18T03:39:01.775Z,200.00
2018-06-18T03:40:01.779Z,212.00
2018-06-18T03:41:01.773Z,228.00
2018-06-18T03:42:01.779Z,244.00
2018-06-18T03:43:01.784Z,256.00
2018-06-18T03:44:01.782Z,276.00
2018-06-18T03:45:01.788Z,308.00
2018-06-18T03:46:01.787Z,344.00
2018-06-18T03:47:01.795Z,384.00
2018-06-18T03:48:01.788Z,420.00
2018-06-18T03:49:01.791Z,452.00
2018-06-18T03:50:01.798Z,484.00
2018-06-18T03:51:01.802Z,516.00
2018-06-18T03:52:01.804Z,548.00
2018-06-18T03:53:01.811Z,584.00
2018-06-18T03:54:01.810Z,612.00
2018-06-18T03:55:01.811Z,648.00
2018-06-18T03:56:01.811Z,664.00
2018-06-18T03:57:01.819Z,680.00
2018-06-18T03:58:01.819Z,708.00
2018-06-18T03:59:01.819Z,736.00
2018-06-18T04:00:01.822Z,760.00
2018-06-18T04:01:01.829Z,776.00
2018-06-18T04:02:01.828Z,836.00
2018-06-18T04:03:01.837Z,1136.00
2018-06-18T04:04:01.833Z,3232.00
2018-06-18T04:05:01.834Z,5112.00
2018-06-18T04:06:01.839Z,2880.00
2018-06-18T04:07:01.841Z,1312.00
2018-06-18T04:08:01.844Z,892.00
2018-06-18T04:09:01.841Z,844.00
2018-06-18T04:10:01.848Z,1700.00
2018-06-18T04:11:01.868Z,2148.00
2018-06-18T04:12:01.849Z,916.00
2018-06-18T04:13:01.855Z,588.00
2018-06-18T04:14:01.856Z,576.00
2018-06-18T04:15:01.864Z,556.00
2018-06-18T04:16:01.869Z,524.00
2018-06-18T04:17:01.868Z,496.00
2018-06-18T04:18:01.873Z,464.00
2018-06-18T04:19:01.872Z,444.00
2018-06-18T04:20:01.876Z,436.00
2018-06-18T04:21:01.879Z,428.00
2018-06-18T04:22:01.878Z,428.00
2018-06-18T04:23:01.885Z,424.00
2018-06-18T04:24:01.885Z,432.00
2018-06-18T04:25:01.887Z,436.00
2018-06-18T04:26:01.892Z,436.00
2018-06-18T04:27:01.894Z,432.00
2018-06-18T04:28:01.898Z,432.00
2018-06-18T04:29:01.899Z,436.00
2018-06-18T04:30:01.902Z,448.00
2018-06-18T04:31:01.936Z,472.00
2018-06-18T04:32:01.905Z,496.00
2018-06-18T04:33:01.912Z,520.00
2018-06-18T04:34:01.913Z,540.00
2018-06-18T04:35:01.915Z,576.00
2018-06-18T04:36:01.921Z,608.00
2018-06-18T04:37:01.942Z,628.00
2018-06-18T04:38:01.928Z,632.00
2018-06-18T04:39:01.931Z,632.00
2018-06-18T04:40:01.929Z,644.00
2018-06-18T04:41:01.937Z,668.00
2018-06-18T04:42:01.936Z,688.00
2018-06-18T04:43:01.943Z,716.00
2018-06-18T04:44:01.942Z,728.00
2018-06-18T04:45:01.946Z,728.00
2018-06-18T04:46:01.979Z,724.00
2018-06-18T04:47:01.955Z,712.00
2018-06-18T04:48:01.957Z,712.00
2018-06-18T04:49:01.967Z,732.00
2018-06-18T04:50:01.965Z,772.00
2018-06-18T04:51:01.966Z,804.00
2018-06-18T04:52:01.970Z,836.00
2018-06-18T04:53:01.973Z,860.00
2018-06-18T04:54:01.973Z,868.00
2018-06-18T04:55:01.973Z,876.00
2018-06-18T04:56:01.976Z,880.00
2018-06-18T04:57:01.991Z,904.00
2018-06-18T04:58:01.989Z,916.00
2018-06-18T04:59:01.995Z,936.00
2018-06-18T05:00:01.988Z,968.00
2018-06-18T05:01:02.002Z,1012.00
2018-06-18T05:02:01.995Z,1060.00
2018-06-18T05:03:02.013Z,1096.00
2018-06-18T05:04:02.010Z,1148.00
2018-06-18T05:05:02.010Z,1172.00
2018-06-18T05:06:02.015Z,1196.00
2018-06-18T05:07:02.013Z,1228.00
2018-06-18T05:08:02.021Z,1256.00
2018-06-18T05:09:02.019Z,1272.00
2018-06-18T05:10:02.024Z,1288.00
2018-06-18T05:11:02.030Z,1300.00
2018-06-18T05:12:02.030Z,1284.00
2018-06-18T05:13:02.106Z,1284.00
2018-06-18T05:14:02.039Z,1264.00
2018-06-18T05:15:02.045Z,1256.00
2018-06-18T05:16:02.045Z,1324.00
2018-06-18T05:17:02.062Z,1308.00
2018-06-18T05:18:02.053Z,1336.00
2018-06-18T05:19:02.057Z,1428.00
2018-06-18T05:20:02.063Z,1556.00
2018-06-18T05:21:02.068Z,1556.00
2018-06-18T05:22:02.070Z,1364.00
2018-06-18T05:23:02.079Z,1200.00
2018-06-18T05:24:02.081Z,1108.00
2018-06-18T05:25:02.084Z,1032.00
2018-06-18T05:26:02.087Z,1000.00
2018-06-18T05:27:02.088Z,1000.00
2018-06-18T05:28:02.092Z,1008.00
2018-06-18T05:29:02.093Z,1032.00
2018-06-18T05:30:02.101Z,1064.00
2018-06-18T05:31:02.099Z,1084.00
2018-06-18T05:32:02.110Z,1092.00
2018-06-18T05:33:02.119Z,1100.00
2018-06-18T05:34:02.140Z,1104.00
2018-06-18T05:35:02.120Z,1244.00
2018-06-18T05:36:02.131Z,1364.00
2018-06-18T05:37:02.130Z,1440.00
2018-06-18T05:38:02.134Z,1472.00
2018-06-18T05:39:02.133Z,1556.00
2018-06-18T05:40:02.133Z,1576.00
2018-06-18T05:41:02.141Z,1616.00
2018-06-18T05:42:02.146Z,1584.00
2018-06-18T05:43:02.147Z,1528.00
2018-06-18T05:44:02.151Z,1504.00
2018-06-18T05:45:02.153Z,1536.00
2018-06-18T05:46:02.155Z,1668.00
2018-06-18T05:47:02.163Z,1692.00
2018-06-18T05:48:02.168Z,1792.00
2018-06-18T05:49:02.173Z,2100.00
2018-06-18T05:50:02.180Z,2140.00
2018-06-18T05:51:02.179Z,2536.00
2018-06-18T05:52:02.185Z,2672.00
2018-06-18T05:53:02.186Z,2556.00
2018-06-18T05:54:02.195Z,2832.00
2018-06-18T05:55:02.197Z,3316.00
2018-06-18T05:56:02.199Z,20352.00
2018-06-18T05:57:02.210Z,7152.00
2018-06-18T05:58:02.216Z,4300.00
2018-06-18T05:59:02.213Z,5072.00
2018-06-18T06:00:02.219Z,8432.00
2018-06-18T06:01:02.226Z,13764.00
2018-06-18T06:02:02.225Z,5116.00
2018-06-18T06:03:02.237Z,3700.00
2018-06-18T06:04:02.241Z,12080.00
2018-06-18T06:05:02.247Z,4776.00
2018-06-18T06:06:02.273Z,3228.00
2018-06-18T06:07:02.267Z,2988.00
2018-06-18T06:08:02.265Z,3184.00
2018-06-18T06:09:02.265Z,3748.00
2018-06-18T06:10:02.276Z,3948.00
2018-06-18T06:11:02.286Z,4872.00
2018-06-18T06:12:02.290Z,5436.00
2018-06-18T06:13:02.296Z,5420.00
2018-06-18T06:14:02.297Z,5316.00
2018-06-18T06:15:02.310Z,6892.00
2018-06-18T06:16:02.308Z,10172.00
2018-06-18T06:17:02.324Z,3412.00
2018-06-18T06:18:02.343Z,10872.00
2018-06-18T06:19:02.338Z,9968.00
2018-06-18T06:20:02.342Z,9940.00
2018-06-18T06:21:02.425Z,9232.00
2018-06-18T06:22:10.988Z,9324.00
2018-06-18T06:23:55.767Z,8128.00
2018-06-18T06:24:55.782Z,7724.00
2018-06-18T06:25:55.794Z,7912.00
2018-06-18T06:26:55.778Z,7904.00
2018-06-18T06:27:55.790Z,8164.00
2018-06-18T06:28:55.796Z,7920.00
2018-06-18T06:29:55.802Z,8160.00
2018-06-18T06:30:55.803Z,7968.00
2018-06-18T06:31:55.819Z,7708.00
2018-06-18T06:32:55.845Z,7216.00
2018-06-18T06:33:55.835Z,6700.00
2018-06-18T06:34:55.834Z,6380.00
2018-06-18T06:35:55.848Z,6392.00
2018-06-18T06:36:55.866Z,6404.00
2018-06-18T06:37:55.865Z,6216.00
2018-06-18T06:38:55.874Z,6300.00
2018-06-18T06:39:55.893Z,6616.00
2018-06-18T06:40:55.888Z,6544.00
2018-06-18T06:41:55.901Z,6416.00
2018-06-18T06:42:55.935Z,6064.00
2018-06-18T06:43:55.914Z,6120.00
2018-06-18T06:44:55.932Z,6112.00
2018-06-18T06:45:55.932Z,5916.00
2018-06-18T06:46:55.948Z,5680.00
2018-06-18T06:47:55.942Z,5704.00
2018-06-18T06:48:56.001Z,5712.00
2018-06-18T06:49:55.961Z,5408.00
2018-06-18T06:50:55.988Z,5504.00
2018-06-18T06:51:55.967Z,5476.00
2018-06-18T06:52:55.979Z,5340.00
2018-06-18T06:53:55.988Z,5076.00
2018-06-18T06:54:56.047Z,4916.00
2018-06-18T06:55:56.019Z,4856.00
2018-06-18T06:56:56.035Z,4668.00
2018-06-18T06:57:56.009Z,4432.00
2018-06-18T06:58:56.021Z,4260.00
2018-06-18T06:59:56.035Z,4144.00
2018-06-18T07:00:56.048Z,4088.00
2018-06-18T07:01:56.039Z,3996.00
2018-06-18T07:02:56.063Z,3912.00
2018-06-18T07:03:56.049Z,3848.00
2018-06-18T07:04:56.078Z,3796.00
2018-06-18T07:05:56.056Z,3736.00
2018-06-18T07:06:56.099Z,3688.00
2018-06-18T07:07:56.088Z,3624.00
2018-06-18T07:08:56.101Z,3600.00
2018-06-18T07:09:56.082Z,3564.00
2018-06-18T07:10:56.093Z,3524.00
2018-06-18T07:11:56.098Z,3508.00
2018-06-18T07:12:56.121Z,3484.00
2018-06-18T07:13:56.111Z,3432.00
2018-06-18T07:14:56.127Z,3384.00
2018-06-18T07:15:56.117Z,3328.00
2018-06-18T07:16:56.124Z,3308.00
2018-06-18T07:17:56.132Z,3248.00
2018-06-18T07:18:56.137Z,3208.00
2018-06-18T07:19:56.144Z,3176.00
2018-06-18T07:20:56.155Z,3208.00
2018-06-18T07:21:56.158Z,3224.00
2018-06-18T07:22:56.167Z,3220.00
2018-06-18T07:23:56.160Z,3220.00
2018-06-18T07:24:56.186Z,3196.00
2018-06-18T07:25:56.177Z,3180.00
2018-06-18T07:26:56.187Z,3296.00
2018-06-18T07:27:56.180Z,3332.00
2018-06-18T07:28:56.216Z,3400.00
2018-06-18T07:29:56.191Z,2760.00
2018-06-18T07:30:56.281Z,2732.00
2018-06-18T07:31:56.209Z,2712.00
2018-06-18T07:32:56.253Z,2788.00
2018-06-18T07:33:56.223Z,2784.00
2018-06-18T07:34:56.266Z,2732.00
2018-06-18T07:35:56.233Z,2656.00
2018-06-18T07:36:56.264Z,2520.00
2018-06-18T07:37:56.247Z,2396.00
2018-06-18T07:38:56.247Z,2308.00
2018-06-18T07:39:56.258Z,2184.00
2018-06-18T07:40:56.255Z,2160.00
2018-06-18T07:41:56.527Z,2028.00
2018-06-18T07:42:56.477Z,2052.00
2018-06-18T07:43:56.515Z,2208.00
2018-06-18T07:44:56.279Z,2116.00
2018-06-18T07:45:56.304Z,1888.00
2018-06-18T07:46:56.290Z,1840.00
2018-06-18T07:47:56.305Z,1788.00
2018-06-18T07:48:56.305Z,1724.00
2018-06-18T07:49:56.310Z,1720.00
2018-06-18T07:50:56.331Z,1724.00
2018-06-18T07:51:56.321Z,1728.00
2018-06-18T07:52:56.343Z,1808.00
2018-06-18T07:53:56.340Z,1748.00
2018-06-18T07:54:56.341Z,1684.00
2018-06-18T07:55:56.367Z,1816.00
2018-06-18T07:56:56.349Z,1668.00
2018-06-18T07:57:56.351Z,1788.00
2018-06-18T07:58:56.363Z,1824.00
2018-06-18T07:59:56.381Z,1952.00
2018-06-18T08:00:56.366Z,2064.00
2018-06-18T08:01:56.380Z,2116.00
2018-06-18T08:02:56.372Z,2212.00
2018-06-18T08:03:56.453Z,2188.00
2018-06-18T08:04:56.383Z,2188.00
2018-06-18T08:05:56.400Z,2336.00
2018-06-18T08:06:56.394Z,2424.00
2018-06-18T08:07:56.401Z,2476.00
2018-06-18T08:08:56.406Z,2328.00
2018-06-18T08:09:56.479Z,2328.00
2018-06-18T08:10:56.418Z,2388.00
2018-06-18T08:11:56.426Z,2264.00
2018-06-18T08:12:56.435Z,2104.00
2018-06-18T08:13:56.435Z,2124.00
2018-06-18T08:14:56.441Z,2100.00
2018-06-18T08:15:56.443Z,1972.00
2018-06-18T08:16:56.444Z,2036.00
2018-06-18T08:17:56.448Z,2096.00
2018-06-18T08:18:56.460Z,2132.00
2018-06-18T08:19:56.463Z,2320.00
2018-06-18T08:20:56.466Z,2408.00
2018-06-18T08:21:56.479Z,2436.00
2018-06-18T08:22:56.504Z,2404.00
2018-06-18T08:23:56.492Z,2276.00
2018-06-18T08:24:56.496Z,2240.00
2018-06-18T08:25:56.506Z,2340.00
2018-06-18T08:26:56.536Z,2356.00
2018-06-18T08:28:05.145Z,2396.00
2018-06-18T08:29:49.926Z,2388.00
2018-06-18T08:30:49.903Z,2356.00
2018-06-18T08:31:49.916Z,2396.00
2018-06-18T08:32:49.934Z,2460.00
2018-06-18T08:33:49.915Z,2020.00
2018-06-18T08:34:49.961Z,1988.00
2018-06-18T08:35:49.932Z,2196.00
2018-06-18T08:36:49.930Z,2148.00
2018-06-18T08:37:49.936Z,2124.00
2018-06-18T08:38:49.956Z,2080.00
2018-06-18T08:39:49.946Z,2120.00
2018-06-18T08:40:49.954Z,2172.00
2018-06-18T08:41:49.969Z,2144.00
2018-06-18T08:42:49.968Z,2168.00
2018-06-18T08:43:49.974Z,2136.00
2018-06-18T08:44:49.984Z,2108.00
2018-06-18T08:45:49.980Z,2164.00
2018-06-18T08:46:50.009Z,2144.00
2018-06-18T08:47:50.001Z,2136.00
2018-06-18T08:48:49.993Z,2100.00
2018-06-18T08:49:50.004Z,2080.00
2018-06-18T08:50:50.016Z,2056.00
2018-06-18T08:51:50.023Z,2004.00
2018-06-18T08:52:50.016Z,1988.00
2018-06-18T08:53:50.029Z,1928.00
2018-06-18T08:54:50.030Z,2112.00
2018-06-18T08:55:50.029Z,1976.00
2018-06-18T08:56:50.035Z,1988.00
2018-06-18T08:57:50.093Z,2064.00
2018-06-18T08:58:50.045Z,2088.00
2018-06-18T08:59:50.086Z,2144.00
2018-06-18T09:00:50.055Z,2220.00
2018-06-18T09:01:50.079Z,2216.00
2018-06-18T09:02:50.085Z,2264.00
2018-06-18T09:03:50.072Z,2284.00
2018-06-18T09:04:50.087Z,2280.00
2018-06-18T09:05:50.078Z,2340.00
2018-06-18T09:06:50.089Z,2212.00
2018-06-18T09:07:50.090Z,2312.00
2018-06-18T09:08:50.111Z,2224.00
2018-06-18T09:09:50.105Z,2232.00
2018-06-18T09:10:50.115Z,2216.00
2018-06-18T09:11:50.119Z,2164.00
2018-06-18T09:12:50.122Z,2228.00
2018-06-18T09:13:50.133Z,2368.00
2018-06-18T09:14:58.779Z,2376.00
2018-06-18T09:16:44.558Z,2452.00
2018-06-18T09:17:44.561Z,2476.00
2018-06-18T09:18:44.553Z,2540.00
2018-06-18T09:19:44.556Z,2448.00
2018-06-18T09:20:44.563Z,2624.00
2018-06-18T09:21:44.560Z,2580.00
2018-06-18T09:22:44.570Z,2596.00
2018-06-18T09:25:05.638Z,2656.00
2018-06-18T09:26:05.613Z,2708.00
2018-06-18T09:27:05.628Z,2684.00
2018-06-18T09:28:05.626Z,2880.00
2018-06-18T09:29:05.635Z,2788.00
2018-06-18T09:30:05.643Z,2788.00
2018-06-18T09:31:05.646Z,2676.00
2018-06-18T09:32:05.689Z,2680.00
2018-06-18T09:33:05.664Z,2796.00
2018-06-18T09:34:05.681Z,2780.00
2018-06-18T09:35:05.677Z,2772.00
2018-06-18T09:36:05.703Z,2812.00
2018-06-18T09:37:05.700Z,2884.00
2018-06-18T09:38:05.698Z,2804.00
2018-06-18T09:39:05.694Z,2788.00
2018-06-18T09:40:05.700Z,2792.00
2018-06-18T09:41:05.704Z,2832.00
2018-06-18T09:42:05.730Z,2828.00
2018-06-18T09:43:06.018Z,2760.00
2018-06-18T09:44:05.729Z,2888.00
2018-06-18T09:45:05.794Z,2312.00
2018-06-18T09:46:05.760Z,2864.00
2018-06-18T09:47:05.750Z,2888.00
2018-06-18T09:48:05.833Z,3140.00
2018-06-18T09:49:05.757Z,3156.00
2018-06-18T09:50:05.771Z,3080.00
2018-06-18T09:51:05.781Z,3024.00
2018-06-18T09:52:05.781Z,2996.00
2018-06-18T09:53:05.791Z,2956.00
2018-06-18T09:54:05.810Z,2872.00
2018-06-18T09:55:05.799Z,2792.00
2018-06-18T09:56:05.813Z,2684.00
2018-06-18T09:57:05.816Z,2612.00
2018-06-18T09:58:05.839Z,2628.00
2018-06-18T09:59:05.841Z,2528.00
2018-06-18T10:00:05.829Z,2424.00
2018-06-18T10:01:05.846Z,2512.00
2018-06-18T10:02:05.853Z,2548.00
2018-06-18T10:03:05.856Z,2504.00
2018-06-18T10:04:05.864Z,2504.00
2018-06-18T10:05:05.881Z,2428.00
2018-06-18T10:06:05.885Z,2612.00
2018-06-18T10:07:05.881Z,2708.00
2018-06-18T10:08:05.900Z,2628.00
2018-06-18T10:09:05.897Z,2612.00
2018-06-18T10:10:05.893Z,2524.00
2018-06-18T10:11:05.902Z,2500.00
2018-06-18T10:12:05.911Z,2468.00
2018-06-18T10:13:05.919Z,2500.00
2018-06-18T10:14:05.929Z,2444.00
2018-06-18T10:15:05.923Z,2448.00
2018-06-18T10:16:05.936Z,2536.00
2018-06-18T10:17:05.959Z,2340.00
2018-06-18T10:18:05.959Z,2304.00
2018-06-18T10:19:05.955Z,2316.00
2018-06-18T10:20:05.961Z,2328.00
2018-06-18T10:21:05.958Z,2344.00
2018-06-18T10:22:05.970Z,2264.00
2018-06-18T10:23:05.979Z,2524.00
2018-06-18T10:24:06.034Z,2456.00
2018-06-18T10:25:05.982Z,2348.00
2018-06-18T10:26:06.000Z,2440.00
2018-06-18T10:27:05.999Z,2596.00
2018-06-18T10:28:06.012Z,2476.00
2018-06-18T10:29:06.006Z,2280.00
2018-06-18T10:30:06.021Z,2256.00
2018-06-18T10:31:06.024Z,2264.00
2018-06-18T10:32:06.033Z,2416.00
2018-06-18T10:33:06.041Z,2260.00
2018-06-18T10:34:06.103Z,2212.00
2018-06-18T10:35:06.046Z,2220.00
2018-06-18T10:36:06.057Z,2164.00
2018-06-18T10:37:06.058Z,1992.00
2018-06-18T10:38:06.075Z,2128.00
2018-06-18T10:39:06.078Z,2084.00
2018-06-18T10:40:06.086Z,2060.00
2018-06-18T10:41:06.145Z,2092.00
2018-06-18T10:42:06.097Z,1996.00
2018-06-18T10:43:06.125Z,2044.00
2018-06-18T10:44:06.107Z,2164.00
2018-06-18T10:45:06.124Z,2024.00
2018-06-18T10:46:06.159Z,2060.00
2018-06-18T10:47:06.121Z,2060.00
2018-06-18T10:48:06.156Z,2072.00
2018-06-18T10:49:06.223Z,2016.00
2018-06-18T10:50:06.139Z,1972.00
2018-06-18T10:51:06.152Z,1984.00
2018-06-18T10:52:06.239Z,2040.00
2018-06-18T10:53:06.160Z,2056.00
2018-06-18T10:54:06.187Z,1936.00
2018-06-18T10:55:06.181Z,2064.00
2018-06-18T10:56:06.193Z,2052.00
2018-06-18T10:57:06.251Z,1964.00
2018-06-18T10:58:06.192Z,1944.00
2018-06-18T10:59:06.214Z,1996.00
2018-06-18T11:00:06.474Z,1924.00
2018-06-18T11:01:06.227Z,1980.00
2018-06-18T11:02:06.252Z,1896.00
2018-06-18T11:03:06.224Z,1836.00
2018-06-18T11:04:06.233Z,1804.00
2018-06-18T11:05:06.249Z,1784.00
2018-06-18T11:06:06.264Z,1776.00
2018-06-18T11:07:06.305Z,1784.00
2018-06-18T11:08:06.274Z,1748.00
2018-06-18T11:09:06.319Z,1708.00
2018-06-18T11:10:06.277Z,1604.00
2018-06-18T11:11:06.306Z,1612.00
2018-06-18T11:12:06.294Z,1632.00
2018-06-18T11:13:06.294Z,1576.00
2018-06-18T11:14:06.298Z,1664.00
2018-06-18T11:15:06.303Z,1616.00
2018-06-18T11:16:06.458Z,1632.00
2018-06-18T11:17:06.556Z,1640.00
2018-06-18T11:18:06.319Z,1588.00
2018-06-18T11:19:06.328Z,1552.00
2018-06-18T11:20:06.329Z,1476.00
2018-06-18T11:21:06.409Z,1368.00
2018-06-18T11:22:06.345Z,1400.00
2018-06-18T11:23:06.346Z,1500.00
2018-06-18T11:24:06.360Z,1504.00
2018-06-18T11:25:06.403Z,1340.00
2018-06-18T11:26:06.365Z,1376.00
2018-06-18T11:27:06.489Z,1520.00
2018-06-18T11:28:06.407Z,1552.00
2018-06-18T11:29:06.399Z,1452.00
2018-06-18T11:30:06.486Z,1388.00
2018-06-18T11:31:06.392Z,1504.00
2018-06-18T11:32:06.399Z,1496.00
2018-06-18T11:33:06.419Z,1504.00
2018-06-18T11:34:06.410Z,1516.00
2018-06-18T11:35:06.427Z,1632.00
2018-06-18T11:36:06.424Z,1560.00
2018-06-18T11:37:06.432Z,1728.00
2018-06-18T11:38:06.439Z,1808.00
2018-06-18T11:39:06.440Z,1856.00
2018-06-18T11:40:06.711Z,1892.00
2018-06-18T11:41:06.463Z,1900.00
2018-06-18T11:42:06.502Z,1928.00
2018-06-18T11:43:06.470Z,1908.00
2018-06-18T11:44:06.469Z,1692.00
2018-06-18T11:45:06.506Z,1828.00
2018-06-18T11:46:06.503Z,1928.00
2018-06-18T11:47:06.495Z,1660.00
2018-06-18T11:48:06.568Z,1636.00
2018-06-18T11:49:06.529Z,1648.00
2018-06-18T11:50:06.531Z,1572.00
2018-06-18T11:51:06.544Z,1640.00
2018-06-18T11:52:06.536Z,1704.00
2018-06-18T11:53:06.531Z,1620.00
2018-06-18T11:54:06.543Z,1636.00
2018-06-18T11:55:06.590Z,1676.00
2018-06-18T11:56:06.618Z,1656.00
2018-06-18T11:57:06.556Z,1708.00
2018-06-18T11:58:06.565Z,1856.00
2018-06-18T11:59:06.576Z,1916.00
2018-06-18T12:00:06.565Z,1904.00
2018-06-18T12:01:06.588Z,1980.00
2018-06-18T12:02:06.605Z,2024.00
2018-06-18T12:03:06.607Z,1984.00
2018-06-18T12:04:06.611Z,2064.00
2018-06-18T12:05:06.660Z,1884.00
2018-06-18T12:06:06.609Z,2116.00
2018-06-18T12:07:06.706Z,2072.00
2018-06-18T12:08:06.631Z,2192.00
2018-06-18T12:09:06.642Z,2116.00
2018-06-18T12:10:06.638Z,2176.00
2018-06-18T12:11:06.686Z,2200.00
2018-06-18T12:12:06.699Z,2228.00
2018-06-18T12:13:06.686Z,2108.00
2018-06-18T12:14:06.663Z,2068.00
2018-06-18T12:15:06.674Z,2040.00
2018-06-18T12:16:06.710Z,2096.00
2018-06-18T12:17:06.690Z,2052.00
2018-06-18T12:18:06.796Z,1984.00
2018-06-18T12:19:06.745Z,1932.00
2018-06-18T12:20:06.742Z,1940.00
2018-06-18T12:21:06.720Z,1888.00
2018-06-18T12:22:06.748Z,1840.00
2018-06-18T12:23:06.757Z,1808.00
2018-06-18T12:24:06.821Z,2068.00
2018-06-18T12:25:06.738Z,1792.00
2018-06-18T12:26:06.754Z,1816.00
2018-06-18T12:27:06.759Z,1812.00
2018-06-18T12:28:06.879Z,1784.00
2018-06-18T12:29:06.764Z,1748.00
2018-06-18T12:30:06.784Z,1792.00
2018-06-18T12:31:06.786Z,1804.00
2018-06-18T12:32:06.783Z,1824.00
2018-06-18T12:33:06.791Z,1844.00
2018-06-18T12:34:06.796Z,1880.00
2018-06-18T12:35:06.810Z,1944.00
2018-06-18T12:36:06.819Z,1968.00
2018-06-18T12:37:06.828Z,2040.00
2018-06-18T12:38:06.835Z,1964.00
2018-06-18T12:39:06.843Z,2128.00
2018-06-18T12:40:06.852Z,2124.00
2018-06-18T12:41:06.881Z,2364.00
2018-06-18T12:42:06.850Z,1980.00
2018-06-18T12:43:06.861Z,1964.00
2018-06-18T12:44:06.868Z,1916.00
2018-06-18T12:45:06.886Z,1932.00
2018-06-18T12:46:06.883Z,2076.00
2018-06-18T12:47:06.893Z,1924.00
2018-06-18T12:48:06.900Z,1968.00